Time;durP1;ratioP1;P1;durP2;ratioP2;P2;SDS_P1;SDS_P2;PMS_P1;PMS_P2;Temp;Humidity;BMP_temperature;BMP_pressure;BME280_temperature;BME280_humidity;BME280_pressure;Samples;Min_cycle;Max_cycle;Signal;HPM_P1;HPM_P2
2022/04/05 11:04:42;;;;;;;17.48;12.23;;;9.10;99.90;;;;;;5111242;27;20489;-63
2022/04/05 11:07:10;;;;;;;16.75;11.93;;;9.30;99.90;;;;;;5111279;28;20612;-63
2022/04/05 11:09:52;;;;;;;18.95;13.50;;;9.50;99.90;;;;;;5111207;28;20159;-63
2022/04/05 11:12:30;;;;;;;18.35;12.35;;;9.60;99.90;;;;;;5111247;28;20167;-63
2022/04/05 11:15:03;;;;;;;14.85;12.10;;;9.70;99.90;;;;;;5111168;28;20162;-63
2022/04/05 11:17:30;;;;;;;15.30;12.85;;;9.60;99.90;;;;;;5111121;28;20167;-63
2022/04/05 11:19:58;;;;;;;17.92;13.57;;;9.70;99.90;;;;;;5109774;28;20173;-63
2022/04/05 11:22:24;;;;;;;21.27;13.10;;;9.80;99.90;;;;;;5110892;28;20498;-63
2022/04/05 11:25:00;;;;;;;16.02;13.32;;;9.90;99.90;;;;;;5110869;28;20194;-63
2022/04/05 11:27:47;;;;;;;16.13;12.90;;;10.00;99.90;;;;;;5110886;28;20250;-63
2022/04/05 11:30:28;;;;;;;15.48;12.27;;;10.10;99.90;;;;;;5110844;28;20163;-63
2022/04/05 11:33:09;;;;;;;15.60;12.27;;;10.30;99.90;;;;;;5110773;28;20247;-63
2022/04/05 11:35:51;;;;;;;17.02;12.73;;;10.30;99.90;;;;;;5110748;28;20175;-63
2022/04/05 11:38:19;;;;;;;20.88;13.20;;;10.10;99.90;;;;;;5110702;28;20525;-63
2022/04/05 11:40:54;;;;;;;14.35;12.80;;;10.00;99.90;;;;;;5110611;28;20167;-63
2022/04/05 11:43:24;;;;;;;13.32;11.23;;;9.90;99.90;;;;;;5110449;28;20186;-63
2022/04/05 11:45:53;;;;;;;13.65;11.52;;;9.80;99.90;;;;;;5110557;28;20163;-63
2022/04/05 11:48:21;;;;;;;14.27;11.50;;;9.80;99.90;;;;;;5110528;28;20567;-63
2022/04/05 11:50:48;;;;;;;15.50;11.68;;;9.80;99.90;;;;;;5110397;28;20168;-63
2022/04/05 11:53:43;;;;;;;16.70;11.32;;;9.80;99.90;;;;;;5110368;28;20228;-63
2022/04/05 11:56:12;;;;;;;13.20;11.80;;;9.80;99.90;;;;;;5105781;28;20537;-63
2022/04/05 11:58:46;;;;;;;15.93;13.00;;;9.70;99.90;;;;;;5110239;28;20174;-63
2022/04/05 12:01:13;;;;;;;13.80;12.27;;;9.80;99.90;;;;;;5110305;28;20173;-63
2022/04/05 12:03:47;;;;;;;11.90;10.68;;;9.90;99.90;;;;;;5109927;28;20219;-63
2022/04/05 12:06:18;;;;;;;12.02;10.13;;;10.00;99.90;;;;;;5110053;28;20168;-63
2022/04/05 12:08:45;;;;;;;11.63;10.45;;;10.10;99.90;;;;;;5110178;28;20663;-63
2022/04/05 12:11:14;;;;;;;13.63;11.13;;;10.10;99.90;;;;;;5110250;28;20170;-63
2022/04/05 12:13:53;;;;;;;11.30;10.20;;;10.10;99.90;;;;;;5108710;28;20521;-63
2022/04/05 12:16:20;;;;;;;11.10;10.00;;;10.00;99.90;;;;;;5095922;28;20187;-63
2022/04/05 12:18:46;;;;;;;13.55;11.18;;;10.00;99.90;;;;;;5094924;28;20583;-63
2022/04/05 12:21:11;;;;;;;15.15;11.60;;;9.90;99.90;;;;;;5096246;28;20255;-63
2022/04/05 12:23:43;;;;;;;14.43;11.60;;;10.00;99.90;;;;;;5096082;28;20272;-63
2022/04/05 12:26:19;;;;;;;13.98;12.25;;;9.90;99.90;;;;;;5096139;28;20653;-63
2022/04/05 12:28:57;;;;;;;17.23;13.57;;;9.90;99.90;;;;;;5096145;28;20174;-63
2022/04/05 12:31:24;;;;;;;17.23;12.95;;;9.90;99.90;;;;;;5096030;28;20259;-63
2022/04/05 12:34:11;;;;;;;12.63;11.30;;;9.90;99.90;;;;;;5095985;28;20222;-63
2022/04/05 12:36:38;;;;;;;15.23;13.32;;;10.90;99.90;;;;;;5095917;28;20187;-63
2022/04/05 12:39:18;;;;;;;21.60;15.98;;;9.90;99.90;;;;;;5094710;28;20178;-63
2022/04/05 12:41:46;;;;;;;19.08;14.68;;;9.90;99.90;;;;;;5095870;28;20239;-63
2022/04/05 12:44:13;;;;;;;19.08;14.75;;;9.90;99.90;;;;;;5095731;28;20248;-63
2022/04/05 12:46:42;;;;;;;19.67;15.10;;;10.00;99.90;;;;;;5095750;28;20166;-63
2022/04/05 12:49:31;;;;;;;24.98;17.08;;;10.10;99.90;;;;;;5095717;28;20175;-63
2022/04/05 12:52:12;;;;;;;24.33;16.10;;;10.10;99.90;;;;;;5095672;28;20166;-63
2022/04/05 12:54:46;;;;;;;23.63;17.17;;;10.00;99.90;;;;;;5095664;28;20525;-63
2022/04/05 12:57:34;;;;;;;25.52;17.50;;;9.90;99.90;;;;;;5095597;28;20192;-63
2022/04/05 13:00:28;;;;;;;23.98;15.65;;;9.90;99.90;;;;;;5095606;28;20179;-63
2022/04/05 13:03:10;;;;;;;20.30;15.38;;;9.80;99.90;;;;;;5095241;28;20219;-63
2022/04/05 13:08:34;;;;;;;26.88;19.05;;;9.70;99.90;;;;;;5095408;28;20174;-63
2022/04/05 13:11:00;;;;;;;29.30;18.77;;;9.60;99.90;;;;;;5095316;28;20232;-63
2022/04/05 13:13:39;;;;;;;27.15;17.48;;;9.60;99.90;;;;;;5095248;28;20168;-63
2022/04/05 13:16:05;;;;;;;23.42;17.40;;;9.50;99.90;;;;;;5095220;28;20255;-63
2022/04/05 13:18:37;;;;;;;21.73;16.55;;;9.50;99.90;;;;;;5093880;28;20636;-63
2022/04/05 13:21:11;;;;;;;25.98;17.60;;;9.40;99.90;;;;;;5095068;28;20251;-63
2022/04/05 13:23:37;;;;;;;26.48;18.38;;;9.30;99.90;;;;;;5094968;28;20676;-63
2022/04/05 13:26:20;;;;;;;27.30;17.45;;;9.40;99.90;;;;;;5094101;28;20213;-63
2022/04/05 13:28:46;;;;;;;25.70;16.73;;;9.40;99.90;;;;;;5095004;28;20160;-63
2022/04/05 13:31:14;;;;;;;23.92;16.88;;;9.40;99.90;;;;;;5094930;28;20160;-63
2022/04/05 13:33:41;;;;;;;22.98;14.45;;;9.40;99.90;;;;;;5094795;28;20195;-63
2022/04/05 13:36:07;;;;;;;20.13;14.55;;;9.40;99.90;;;;;;5094839;28;20524;-63
2022/04/05 13:38:34;;;;;;;22.92;15.93;;;9.50;99.90;;;;;;5094711;28;20172;-63
2022/04/05 13:40:59;;;;;;;21.90;15.70;;;9.70;99.90;;;;;;5093487;28;20664;-63
2022/04/05 13:43:25;;;;;;;23.80;15.75;;;9.80;99.90;;;;;;5094564;28;20195;-63
2022/04/05 13:45:51;;;;;;;17.15;13.65;;;9.90;99.90;;;;;;5094670;28;20170;-63
2022/04/05 13:48:17;;;;;;;16.65;12.82;;;9.90;99.90;;;;;;5094494;28;20168;-63
2022/04/05 13:50:42;;;;;;;18.73;14.40;;;9.90;99.90;;;;;;5094534;28;20179;-63
2022/04/05 13:53:08;;;;;;;21.55;13.63;;;9.90;99.90;;;;;;5094400;28;20182;-63
2022/04/05 13:55:34;;;;;;;14.98;13.05;;;9.90;99.90;;;;;;5094522;28;20171;-63
2022/04/05 13:58:00;;;;;;;17.17;14.75;;;10.00;99.90;;;;;;5094401;28;20168;-63
2022/04/05 14:00:25;;;;;;;18.98;13.70;;;10.00;99.90;;;;;;5094354;28;20183;-63
2022/04/05 14:02:54;;;;;;;14.43;12.45;;;9.90;99.90;;;;;;5093979;28;20215;-63
2022/04/05 14:05:20;;;;;;;17.23;14.15;;;9.80;99.90;;;;;;5094310;28;20164;-63
2022/04/05 14:07:46;;;;;;;19.35;13.98;;;9.70;99.90;;;;;;5094219;28;20175;-63
2022/04/05 14:10:13;;;;;;;22.23;15.23;;;9.70;99.90;;;;;;5094138;28;20171;-63
2022/04/05 14:12:39;;;;;;;21.58;15.50;;;9.70;99.90;;;;;;5094138;28;20164;-63
2022/04/05 14:15:05;;;;;;;19.55;13.57;;;9.70;99.90;;;;;;5094096;28;20179;-63
2022/04/05 14:17:31;;;;;;;19.08;13.82;;;9.80;99.90;;;;;;5093974;28;20163;-63
2022/04/05 14:19:56;;;;;;;17.45;12.73;;;9.80;99.90;;;;;;5093997;28;20290;-63
2022/04/05 14:22:22;;;;;;;13.75;12.05;;;9.80;99.90;;;;;;5092645;28;20179;-63
2022/04/05 14:24:47;;;;;;;14.88;13.30;;;9.80;99.90;;;;;;5093858;28;20202;-63
2022/04/05 14:27:13;;;;;;;16.60;13.20;;;9.90;99.90;;;;;;5093885;28;20168;-63
2022/04/05 14:29:39;;;;;;;12.95;11.52;;;9.90;99.90;;;;;;5093857;28;20254;-63
2022/04/05 14:32:05;;;;;;;13.57;12.18;;;9.80;99.90;;;;;;5093742;28;20523;-63
2022/04/05 14:34:30;;;;;;;12.98;11.57;;;9.80;99.90;;;;;;5093713;28;20221;-63
2022/04/05 14:36:56;;;;;;;13.95;11.60;;;9.90;99.90;;;;;;5093648;28;20171;-63
2022/04/05 14:39:22;;;;;;;11.52;10.32;;;9.90;99.90;;;;;;5093452;28;20205;-63
2022/04/05 14:41:49;;;;;;;12.90;11.30;;;9.90;99.90;;;;;;5093669;28;20530;-63
2022/04/05 14:44:14;;;;;;;18.10;10.80;;;10.00;99.90;;;;;;5093502;28;20196;-63
2022/04/05 14:46:40;;;;;;;11.77;10.52;;;10.00;99.90;;;;;;5093551;28;20166;-63
2022/04/05 14:49:06;;;;;;;10.23;8.95;;;10.10;99.90;;;;;;5093567;28;20217;-63
2022/04/05 14:51:34;;;;;;;11.15;10.05;;;10.00;99.90;;;;;;5093605;28;20167;-63
2022/04/05 14:54:00;;;;;;;12.50;9.85;;;10.00;99.90;;;;;;5093514;28;20570;-63
2022/04/05 14:56:27;;;;;;;11.55;10.40;;;10.00;99.90;;;;;;5093515;28;20167;-63
2022/04/05 14:58:53;;;;;;;11.57;9.40;;;9.90;99.90;;;;;;5093436;28;20250;-63
2022/04/05 15:01:18;;;;;;;10.18;9.27;;;9.90;99.90;;;;;;5092149;28;20259;-63
2022/04/05 15:03:44;;;;;;;10.27;9.38;;;10.00;99.90;;;;;;5093192;28;20248;-63
2022/04/05 15:06:09;;;;;;;13.55;10.73;;;9.90;99.90;;;;;;5093427;28;20734;-63
2022/04/05 15:08:35;;;;;;;12.13;10.75;;;9.90;99.90;;;;;;5093314;28;20187;-63
2022/04/05 15:11:01;;;;;;;11.70;10.27;;;9.90;99.90;;;;;;5093401;28;20163;-63
2022/04/05 15:13:28;;;;;;;11.00;9.90;;;9.80;99.90;;;;;;5093297;28;20168;-63
2022/04/05 15:15:54;;;;;;;11.55;10.45;;;9.80;99.90;;;;;;5093262;28;20160;-63
2022/04/05 15:18:20;;;;;;;12.27;10.98;;;9.80;99.90;;;;;;5093345;28;20535;-63
2022/04/05 15:20:46;;;;;;;12.65;11.35;;;9.70;99.90;;;;;;5091984;28;20171;-63
2022/04/05 15:23:11;;;;;;;12.40;10.95;;;9.70;99.90;;;;;;5093184;28;20199;-63
2022/04/05 15:25:37;;;;;;;13.85;11.95;;;9.70;99.90;;;;;;5093143;28;20187;-63
2022/04/05 15:28:03;;;;;;;13.20;11.50;;;9.70;99.90;;;;;;5093171;28;20523;-63
2022/04/05 15:30:32;;;;;;;12.52;11.30;;;9.70;99.90;;;;;;5093097;28;20168;-63
2022/04/05 15:52:22;;;;;;;18.98;14.35;;;9.60;99.90;;;;;;5070592;28;21116;-63
2022/04/05 15:54:50;;;;;;;20.45;15.10;;;9.70;99.90;;;;;;5070678;28;20183;-63
2022/04/05 15:57:16;;;;;;;20.38;15.48;;;9.70;99.90;;;;;;5070529;28;20161;-63
2022/04/05 15:59:41;;;;;;;17.30;14.70;;;9.70;99.90;;;;;;5070593;28;20226;-63
2022/04/05 16:02:08;;;;;;;18.30;14.35;;;9.70;99.90;;;;;;5070717;28;20176;-63
